createdAt,value
2022-10-25T00:00:16.286Z,6.63
2022-10-25T00:05:40.970Z,7.33
2022-10-25T00:39:02.934Z,8.57
2022-10-25T01:18:50.718Z,15.77
2022-10-25T04:20:17.443Z,12.63
2022-10-25T04:25:25.643Z,12.53
2022-10-25T04:42:49.258Z,13.27
2022-10-25T04:47:52.781Z,12.73
2022-10-25T04:52:55.980Z,15.77
2022-10-25T04:57:59.338Z,11.60
2022-10-25T05:03:02.952Z,13.00
2022-10-25T05:08:06.372Z,18.23
2022-10-25T05:13:09.562Z,18.50
2022-10-25T05:18:12.803Z,19.77
2022-10-25T05:23:16.407Z,22.93
2022-10-25T05:28:19.423Z,16.67
2022-10-25T05:33:22.442Z,22.23
2022-10-25T05:38:26.092Z,15.57
2022-10-25T05:43:29.688Z,20.80
2022-10-25T05:48:34.322Z,20.43
2022-10-25T05:53:37.605Z,15.13
2022-10-25T05:58:41.748Z,15.73
2022-10-25T06:03:45.065Z,12.23
2022-10-25T06:08:48.987Z,12.00
2022-10-25T06:13:52.653Z,15.73
2022-10-25T06:18:56.291Z,14.63
2022-10-25T06:24:00.453Z,15.77
2022-10-25T06:29:04.874Z,13.70
2022-10-25T06:34:09.433Z,13.97
2022-10-25T06:39:12.792Z,13.00
2022-10-25T06:44:16.038Z,13.13
2022-10-25T06:49:19.335Z,12.80
2022-10-25T06:54:23.622Z,13.07
2022-10-25T06:59:27.290Z,15.60
2022-10-25T07:04:33.108Z,11.43
2022-10-25T07:09:38.030Z,13.93
2022-10-25T07:14:41.383Z,12.70
2022-10-25T07:19:44.373Z,14.97
2022-10-25T07:24:47.362Z,15.40
2022-10-25T07:29:50.606Z,15.53
2022-10-25T07:34:54.166Z,16.60
2022-10-25T07:39:57.202Z,13.73
2022-10-25T07:45:00.572Z,13.60
2022-10-25T07:50:04.020Z,15.37
2022-10-25T07:55:08.073Z,15.97
2022-10-25T08:00:11.906Z,15.00
2022-10-25T08:05:15.100Z,13.17
2022-10-25T08:10:21.090Z,13.47
2022-10-25T08:15:24.631Z,16.37
2022-10-25T08:20:43.286Z,12.50
2022-10-25T08:25:54.383Z,14.63
2022-10-25T08:31:01.696Z,16.23
2022-10-25T08:36:06.145Z,14.27
2022-10-25T08:41:22.713Z,19.63
2022-10-25T08:46:48.242Z,12.70
2022-10-25T08:51:53.600Z,17.57
2022-10-25T08:57:16.891Z,17.10
2022-10-25T09:02:41.871Z,11.20
2022-10-25T09:07:59.623Z,13.00
2022-10-25T09:13:11.538Z,8.47
2022-10-25T09:18:17.833Z,12.00
2022-10-25T09:23:32.677Z,12.13
2022-10-25T09:29:06.013Z,14.03
2022-10-25T09:34:11.173Z,10.73
2022-10-25T09:39:34.322Z,9.47
2022-10-25T09:44:49.582Z,9.60
2022-10-25T09:49:59.264Z,10.57
2022-10-25T09:55:33.540Z,11.50
2022-10-25T10:00:40.906Z,8.73
2022-10-25T10:05:55.542Z,6.70
2022-10-25T10:11:00.109Z,10.63
2022-10-25T10:16:06.514Z,7.73
2022-10-25T10:21:18.072Z,9.70
2022-10-25T10:26:28.126Z,8.77
2022-10-25T10:31:37.615Z,7.07
2022-10-25T10:36:45.974Z,11.87
2022-10-25T10:42:15.106Z,9.07
2022-10-25T10:47:22.282Z,13.40
2022-10-25T10:52:40.732Z,13.10
2022-10-25T10:57:45.722Z,11.97
2022-10-25T11:02:49.793Z,9.73
2022-10-25T11:07:59.140Z,10.03
2022-10-25T11:13:17.292Z,13.77
2022-10-25T11:18:47.168Z,6.63
2022-10-25T11:24:22.722Z,9.03
2022-10-25T11:29:41.961Z,8.10
2022-10-25T11:35:06.992Z,10.93
2022-10-25T11:40:30.842Z,7.70
2022-10-25T11:46:05.452Z,9.23
2022-10-25T11:51:24.974Z,10.13
2022-10-25T11:56:56.383Z,9.43
2022-10-25T12:02:35.007Z,11.20
2022-10-25T12:07:49.298Z,15.77
2022-10-25T12:13:01.062Z,11.33
2022-10-25T12:18:06.802Z,16.43
2022-10-25T12:23:14.104Z,10.83
2022-10-25T12:28:51.414Z,8.65
2022-10-25T12:34:16.735Z,11.73
2022-10-25T12:39:33.893Z,7.80
2022-10-25T12:45:10.069Z,9.23
2022-10-25T12:50:52.971Z,6.90
2022-10-25T12:56:02.219Z,8.20
2022-10-25T13:01:30.353Z,7.30
2022-10-25T13:07:00.210Z,15.83
2022-10-25T13:12:24.544Z,8.27
2022-10-25T13:17:27.778Z,8.70
2022-10-25T13:22:47.015Z,8.30
2022-10-25T13:28:15.281Z,11.93
2022-10-25T13:33:24.584Z,7.30
2022-10-25T13:38:38.850Z,8.27
2022-10-25T13:44:01.565Z,7.00
2022-10-25T13:49:28.273Z,9.63
2022-10-25T13:54:52.533Z,7.63
2022-10-25T14:00:00.573Z,8.03
2022-10-25T14:05:04.222Z,6.57
2022-10-25T14:10:14.421Z,6.67
2022-10-25T14:15:44.146Z,7.00
2022-10-25T14:20:50.861Z,7.33
2022-10-25T14:25:59.732Z,11.90
2022-10-25T14:31:05.933Z,8.63
2022-10-25T14:36:31.114Z,8.57
2022-10-25T14:41:36.105Z,6.37
2022-10-25T14:46:45.029Z,11.47
2022-10-25T14:51:49.791Z,9.37
2022-10-25T14:56:57.015Z,8.37
2022-10-25T15:02:05.214Z,10.73
2022-10-25T15:07:19.302Z,10.10
2022-10-25T15:12:25.506Z,11.53
2022-10-25T15:17:30.432Z,12.67
2022-10-25T15:22:46.799Z,10.33
2022-10-25T15:27:51.863Z,12.33
2022-10-25T15:32:55.321Z,11.47
2022-10-25T15:37:59.111Z,9.33
2022-10-25T15:43:02.685Z,12.47
2022-10-25T15:48:08.111Z,10.50
2022-10-25T15:53:13.306Z,16.63
2022-10-25T15:58:17.219Z,16.57
2022-10-25T16:03:26.353Z,18.17
2022-10-25T16:08:30.410Z,12.57
2022-10-25T16:13:38.492Z,15.13
2022-10-25T16:18:42.152Z,12.60
2022-10-25T16:23:45.873Z,11.83
2022-10-25T16:28:50.663Z,12.93
2022-10-25T16:33:55.644Z,18.97
2022-10-25T16:38:59.071Z,19.83
2022-10-25T16:44:02.681Z,19.97
2022-10-25T16:49:06.302Z,15.43
2022-10-25T16:54:12.016Z,19.63
2022-10-25T16:59:15.010Z,16.40
2022-10-25T17:04:18.329Z,13.90
2022-10-25T17:09:22.312Z,26.13
2022-10-25T17:14:25.819Z,27.03
2022-10-25T17:19:29.544Z,34.80
2022-10-25T17:24:37.745Z,30.27
2022-10-25T17:29:44.852Z,32.03
2022-10-25T17:34:49.382Z,32.27
2022-10-25T17:39:53.751Z,36.77
2022-10-25T17:44:58.332Z,29.57
2022-10-25T17:50:02.541Z,68.93
2022-10-25T17:55:06.557Z,53.97
2022-10-25T18:00:12.272Z,36.23
2022-10-25T18:05:20.312Z,44.97
2022-10-25T18:10:25.561Z,44.40
2022-10-25T18:15:36.255Z,47.03
2022-10-25T18:20:41.844Z,32.47
2022-10-25T18:31:04.054Z,22.57
2022-10-25T18:36:13.339Z,18.57
2022-10-25T18:41:21.392Z,16.77
2022-10-25T18:46:30.124Z,17.73
2022-10-25T18:51:34.133Z,14.60
2022-10-25T18:56:38.676Z,24.40
2022-10-25T19:01:43.023Z,30.87
2022-10-25T19:06:47.500Z,85.83
2022-10-25T19:11:52.941Z,58.77
2022-10-25T19:16:59.156Z,41.20
2022-10-25T19:22:03.482Z,42.00
2022-10-25T19:27:08.877Z,67.80
2022-10-25T19:32:18.109Z,50.10
2022-10-25T19:37:23.509Z,47.67
2022-10-25T19:42:30.201Z,39.27
2022-10-25T19:47:36.642Z,50.03
2022-10-25T19:52:41.652Z,49.80
2022-10-25T19:57:46.828Z,56.60
2022-10-25T20:02:52.142Z,61.90
2022-10-25T20:16:37.554Z,53.97
2022-10-25T20:28:47.072Z,61.73
2022-10-25T20:34:04.818Z,49.40
2022-10-25T20:39:16.067Z,58.00
2022-10-25T20:44:28.404Z,58.37
2022-10-25T20:49:35.836Z,65.40
2022-10-25T20:54:41.329Z,56.93
2022-10-25T20:59:47.622Z,53.93
2022-10-25T21:05:00.462Z,53.47
2022-10-25T21:10:11.532Z,33.80
2022-10-25T21:15:23.946Z,49.20
2022-10-25T21:20:33.494Z,47.77
2022-10-25T21:25:37.229Z,48.23
2022-10-25T21:30:46.428Z,49.57
2022-10-25T21:35:50.111Z,31.23
2022-10-25T21:40:53.193Z,41.77
2022-10-25T21:45:59.244Z,36.03
2022-10-25T22:11:28.419Z,28.67
2022-10-25T22:16:52.021Z,24.17
2022-10-25T22:50:26.290Z,20.57
2022-10-25T22:56:55.831Z,21.90
2022-10-25T23:02:31.602Z,20.17
2022-10-25T23:46:35.191Z,35.27
2022-10-25T23:51:38.511Z,25.77
2022-10-25T23:56:42.213Z,18.93
